createdAt,value
2019-03-21T00:02:15.187Z,93.85
2019-03-21T00:04:46.406Z,93.83
2019-03-21T00:07:16.169Z,93.85
2019-03-21T00:10:12.033Z,93.83
2019-03-21T00:12:41.770Z,93.54
2019-03-21T00:15:16.989Z,93.66
2019-03-21T00:17:49.088Z,93.53
2019-03-21T00:20:18.939Z,93.45
2019-03-21T00:22:48.667Z,93.56
2019-03-21T00:25:23.508Z,93.49
2019-03-21T00:27:53.358Z,93.54
2019-03-21T00:30:24.851Z,93.45
2019-03-21T00:32:55.879Z,93.45
2019-03-21T00:38:36.677Z,93.33
2019-03-21T00:41:06.363Z,93.16
2019-03-21T00:43:36.133Z,92.88
2019-03-21T00:46:05.917Z,92.86
2019-03-21T00:48:35.678Z,92.98
2019-03-21T00:51:05.396Z,92.94
2019-03-21T00:53:49.389Z,93.02
2019-03-21T00:56:19.211Z,93.01
2019-03-21T00:58:48.962Z,93.11
2019-03-21T01:01:18.698Z,93.19
2019-03-21T01:03:48.494Z,93.08
2019-03-21T01:06:18.223Z,93.12
2019-03-21T01:08:48.065Z,93.04
2019-03-21T01:11:17.752Z,93.23
2019-03-21T01:13:48.032Z,93.20
2019-03-21T01:16:17.773Z,93.13
2019-03-21T01:18:48.097Z,93.14
2019-03-21T01:21:17.848Z,92.92
2019-03-21T01:23:47.674Z,92.80
2019-03-21T01:26:17.433Z,92.82
2019-03-21T01:28:47.230Z,92.68
2019-03-21T01:31:16.960Z,92.60
2019-03-21T01:33:46.680Z,92.77
2019-03-21T01:36:16.608Z,92.71
2019-03-21T01:38:46.343Z,92.87
2019-03-21T01:41:18.326Z,92.94
2019-03-21T01:43:48.029Z,92.72
2019-03-21T01:46:20.237Z,92.68
2019-03-21T01:48:50.036Z,92.55
2019-03-21T01:51:19.815Z,92.58
2019-03-21T01:53:49.713Z,92.45
2019-03-21T01:56:19.463Z,92.48
2019-03-21T01:58:49.266Z,92.34
2019-03-21T02:01:19.009Z,92.39
2019-03-21T02:03:48.735Z,92.27
2019-03-21T02:06:18.467Z,92.27
2019-03-21T02:08:48.185Z,92.39
2019-03-21T02:11:17.913Z,92.41
2019-03-21T02:13:47.669Z,92.25
2019-03-21T02:16:17.488Z,92.27
2019-03-21T02:18:47.213Z,92.30
2019-03-21T02:21:17.397Z,92.39
2019-03-21T02:23:47.191Z,92.24
2019-03-21T02:26:16.882Z,92.30
2019-03-21T02:28:46.614Z,92.29
2019-03-21T02:31:16.373Z,92.42
2019-03-21T02:33:46.086Z,92.46
2019-03-21T02:36:15.826Z,92.51
2019-03-21T02:38:45.578Z,92.40
2019-03-21T02:41:16.750Z,92.36
2019-03-21T02:43:46.458Z,92.40
2019-03-21T02:46:16.180Z,92.29
2019-03-21T02:48:45.991Z,92.38
2019-03-21T02:51:15.716Z,92.47
2019-03-21T02:53:49.631Z,92.43
2019-03-21T02:56:22.710Z,92.51
2019-03-21T02:58:52.531Z,92.54
2019-03-21T03:01:22.251Z,92.28
2019-03-21T03:03:51.966Z,92.10
2019-03-21T03:06:21.649Z,92.08
2019-03-21T03:08:51.411Z,91.99
2019-03-21T03:11:23.169Z,92.14
2019-03-21T03:13:52.981Z,92.08
2019-03-21T03:16:24.061Z,91.96
2019-03-21T03:18:53.787Z,91.79
2019-03-21T03:21:23.495Z,91.97
2019-03-21T03:23:53.243Z,92.02
2019-03-21T03:26:22.956Z,92.11
2019-03-21T03:28:52.715Z,92.02
2019-03-21T03:31:22.457Z,92.09
2019-03-21T03:33:52.223Z,91.97
2019-03-21T03:36:21.967Z,92.23
2019-03-21T03:38:51.671Z,92.33
2019-03-21T03:41:22.232Z,92.23
2019-03-21T03:43:52.110Z,92.52
2019-03-21T03:46:21.839Z,92.56
2019-03-21T03:48:51.584Z,92.79
2019-03-21T03:51:21.383Z,92.74
2019-03-21T03:53:54.133Z,92.82
2019-03-21T03:56:24.165Z,92.95
2019-03-21T03:59:02.848Z,92.86
2019-03-21T04:01:32.655Z,92.83
2019-03-21T04:04:02.475Z,93.09
2019-03-21T04:06:35.686Z,93.14
2019-03-21T04:09:07.700Z,92.99
2019-03-21T04:11:38.207Z,93.01
2019-03-21T04:14:08.026Z,93.00
2019-03-21T04:16:37.911Z,92.84
2019-03-21T04:19:07.651Z,92.77
2019-03-21T04:21:37.456Z,92.85
2019-03-21T04:24:07.226Z,92.78
2019-03-21T04:26:37.256Z,92.82
2019-03-21T04:29:06.986Z,92.89
2019-03-21T04:31:36.703Z,92.99
2019-03-21T04:34:09.476Z,93.00
2019-03-21T04:36:39.217Z,92.89
2019-03-21T04:39:10.322Z,92.97
2019-03-21T04:41:42.272Z,92.95
2019-03-21T04:44:12.011Z,93.08
2019-03-21T04:46:41.739Z,93.14
2019-03-21T04:49:11.515Z,93.28
2019-03-21T04:51:41.297Z,93.42
2019-03-21T04:54:24.637Z,93.17
2019-03-21T04:56:54.357Z,93.16
2019-03-21T04:59:24.082Z,93.19
2019-03-21T05:01:53.813Z,93.41
2019-03-21T05:04:23.577Z,93.63
2019-03-21T05:06:53.284Z,93.72
2019-03-21T05:09:23.058Z,93.71
2019-03-21T05:11:52.785Z,93.84
2019-03-21T05:14:22.554Z,93.79
2019-03-21T05:16:52.253Z,93.90
2019-03-21T05:19:21.996Z,93.87
2019-03-21T05:21:51.726Z,93.24
2019-03-21T05:24:21.478Z,93.17
2019-03-21T05:26:51.196Z,93.24
2019-03-21T05:29:20.937Z,93.39
2019-03-21T05:31:50.738Z,93.39
2019-03-21T05:34:20.480Z,93.58
2019-03-21T05:36:50.517Z,93.50
2019-03-21T05:39:20.394Z,93.54
2019-03-21T05:41:50.111Z,93.75
2019-03-21T05:44:22.900Z,93.73
2019-03-21T05:46:52.609Z,93.78
2019-03-21T05:49:22.334Z,93.96
2019-03-21T05:51:52.105Z,94.10
2019-03-21T05:54:22.841Z,93.92
2019-03-21T05:56:52.570Z,94.01
2019-03-21T05:59:22.343Z,94.11
2019-03-21T06:01:52.196Z,94.14
2019-03-21T06:04:21.928Z,94.27
2019-03-21T06:07:09.806Z,94.15
2019-03-21T06:09:39.518Z,94.10
2019-03-21T06:12:09.359Z,94.31
2019-03-21T06:14:59.675Z,94.23
2019-03-21T06:17:30.378Z,94.08
2019-03-21T06:20:05.748Z,94.36
2019-03-21T06:22:47.178Z,94.48
2019-03-21T06:25:25.675Z,94.53
2019-03-21T06:27:55.429Z,94.55
2019-03-21T06:30:25.173Z,94.64
2019-03-21T06:32:54.896Z,94.42
2019-03-21T06:35:24.715Z,94.48
2019-03-21T06:37:54.446Z,94.49
2019-03-21T06:40:24.272Z,94.61
2019-03-21T06:42:54.020Z,94.59
2019-03-21T06:45:23.827Z,94.58
2019-03-21T06:47:53.605Z,94.62
2019-03-21T06:50:23.339Z,94.63
2019-03-21T06:52:53.116Z,94.72
2019-03-21T06:55:23.031Z,94.64
2019-03-21T06:57:52.773Z,94.75
2019-03-21T07:00:24.895Z,94.57
2019-03-21T07:02:53.908Z,94.59
2019-03-21T07:05:23.650Z,94.34
2019-03-21T07:07:53.402Z,94.19
2019-03-21T07:10:23.141Z,94.10
2019-03-21T07:12:52.910Z,94.00
2019-03-21T07:15:22.703Z,94.23
2019-03-21T07:17:52.445Z,94.40
2019-03-21T07:20:22.259Z,94.34
2019-03-21T07:22:52.105Z,94.34
2019-03-21T07:25:21.809Z,94.31
2019-03-21T07:27:51.595Z,94.20
2019-03-21T07:30:21.474Z,94.13
2019-03-21T07:32:51.201Z,94.20
2019-03-21T07:35:20.915Z,94.27
2019-03-21T07:37:50.730Z,94.35
2019-03-21T07:40:20.467Z,94.30
2019-03-21T07:42:50.257Z,94.09
2019-03-21T07:45:19.934Z,94.00
2019-03-21T07:47:49.688Z,93.98
2019-03-21T07:50:19.538Z,94.13
2019-03-21T07:52:49.269Z,94.26
2019-03-21T07:55:19.097Z,94.08
2019-03-21T07:57:48.802Z,94.03
2019-03-21T08:00:19.511Z,93.96
2019-03-21T08:02:49.387Z,93.70
2019-03-21T08:05:19.220Z,93.66
2019-03-21T08:10:02.472Z,93.86
2019-03-21T08:11:38.323Z,93.99
2019-03-21T08:20:35.914Z,93.95
2019-03-21T08:23:05.712Z,93.69
2019-03-21T08:25:35.443Z,93.59
2019-03-21T08:28:08.136Z,93.44
2019-03-21T08:30:40.991Z,93.35
2019-03-21T08:33:10.776Z,93.22
2019-03-21T08:35:40.486Z,93.09
2019-03-21T08:38:11.867Z,92.89
2019-03-21T08:40:46.627Z,92.45
2019-03-21T08:43:22.151Z,92.45
2019-03-21T08:45:51.879Z,92.30
2019-03-21T08:48:23.266Z,92.21
2019-03-21T08:50:53.072Z,92.14
2019-03-21T08:53:22.851Z,91.89
2019-03-21T08:55:52.619Z,91.94
2019-03-21T08:58:22.336Z,91.66
2019-03-21T09:00:52.095Z,91.35
2019-03-21T09:03:21.798Z,91.66
2019-03-21T09:05:51.691Z,91.33
2019-03-21T09:08:21.514Z,91.27
2019-03-21T09:10:51.250Z,90.74
2019-03-21T09:13:20.969Z,90.94
2019-03-21T09:15:50.712Z,90.84
2019-03-21T09:18:20.455Z,90.23
2019-03-21T09:20:50.213Z,89.69
2019-03-21T09:23:19.945Z,89.90
2019-03-21T09:25:51.301Z,89.60
2019-03-21T09:28:21.208Z,89.22
2019-03-21T09:30:50.989Z,88.96
2019-03-21T09:33:20.779Z,88.78
2019-03-21T09:35:50.530Z,88.72
2019-03-21T09:38:20.276Z,88.18
2019-03-21T09:40:50.023Z,88.23
2019-03-21T09:43:19.840Z,88.24
2019-03-21T09:45:49.638Z,88.26
2019-03-21T09:48:19.475Z,88.29
2019-03-21T09:50:49.186Z,88.58
2019-03-21T09:53:26.701Z,88.37
2019-03-21T09:55:56.795Z,88.11
2019-03-21T09:58:29.530Z,88.54
2019-03-21T10:00:59.228Z,88.23
2019-03-21T10:03:29.020Z,88.32
2019-03-21T10:05:59.182Z,88.13
2019-03-21T10:08:28.987Z,88.18
2019-03-21T10:10:58.793Z,88.11
2019-03-21T10:13:28.540Z,88.03
2019-03-21T10:15:58.248Z,88.34
2019-03-21T10:18:27.998Z,88.09
2019-03-21T10:20:57.709Z,87.80
2019-03-21T10:23:27.438Z,87.94
2019-03-21T10:25:57.166Z,88.03
2019-03-21T10:28:26.993Z,88.19
2019-03-21T10:30:57.333Z,87.88
2019-03-21T10:33:27.143Z,87.98
2019-03-21T10:35:56.879Z,87.80
2019-03-21T10:38:26.634Z,87.62
2019-03-21T10:40:56.398Z,87.38
2019-03-21T10:43:26.121Z,87.62
2019-03-21T10:45:55.902Z,86.97
2019-03-21T10:48:25.624Z,87.10
2019-03-21T10:50:55.352Z,87.12
2019-03-21T10:53:25.079Z,86.84
2019-03-21T10:55:54.870Z,86.83
2019-03-21T10:58:24.600Z,87.05
2019-03-21T11:00:54.331Z,86.96
2019-03-21T11:03:24.084Z,86.67
2019-03-21T11:05:53.851Z,86.88
2019-03-21T11:08:23.544Z,86.48
2019-03-21T11:10:53.371Z,86.18
2019-03-21T11:13:23.114Z,86.24
2019-03-21T11:15:52.855Z,85.81
2019-03-21T11:18:22.602Z,85.79
2019-03-21T11:20:52.511Z,85.55
2019-03-21T11:23:22.265Z,85.39
2019-03-21T11:25:52.091Z,85.59
2019-03-21T11:28:21.816Z,85.38
2019-03-21T11:30:51.559Z,85.21
2019-03-21T11:33:21.302Z,84.85
2019-03-21T11:35:51.052Z,84.52
2019-03-21T11:38:20.760Z,84.25
2019-03-21T11:40:50.504Z,83.68
2019-03-21T11:43:20.292Z,83.39
2019-03-21T11:45:49.983Z,83.71
2019-03-21T11:48:19.763Z,82.97
2019-03-21T11:50:49.645Z,83.09
2019-03-21T11:53:31.698Z,82.83
2019-03-21T11:56:01.438Z,82.81
2019-03-21T11:58:31.184Z,82.60
2019-03-21T12:01:00.904Z,82.48
2019-03-21T12:03:30.656Z,82.58
2019-03-21T12:06:00.320Z,81.71
2019-03-21T12:08:30.006Z,81.77
2019-03-21T12:10:59.676Z,81.94
2019-03-21T12:13:29.361Z,82.03
2019-03-21T12:15:59.026Z,81.86
2019-03-21T12:18:28.715Z,81.43
2019-03-21T12:20:58.375Z,81.35
2019-03-21T12:23:28.059Z,81.37
2019-03-21T12:25:57.713Z,81.55
2019-03-21T12:28:27.393Z,81.95
2019-03-21T12:30:57.124Z,82.58
2019-03-21T12:33:26.929Z,81.78
2019-03-21T12:35:56.653Z,81.97
2019-03-21T12:38:26.351Z,82.03
2019-03-21T12:40:56.095Z,81.32
2019-03-21T12:43:25.824Z,81.58
2019-03-21T12:45:55.570Z,80.94
2019-03-21T12:48:25.303Z,81.41
2019-03-21T12:50:55.106Z,81.48
2019-03-21T12:53:24.916Z,81.99
2019-03-21T12:55:57.426Z,82.21
2019-03-21T12:58:27.193Z,81.97
2019-03-21T13:00:56.947Z,82.25
2019-03-21T13:03:31.582Z,82.25
2019-03-21T13:06:01.378Z,82.44
2019-03-21T13:08:34.100Z,82.40
2019-03-21T13:11:02.690Z,82.50
2019-03-21T13:13:32.482Z,82.57
2019-03-21T13:16:02.237Z,81.85
2019-03-21T13:18:32.016Z,82.11
2019-03-21T13:21:01.745Z,81.70
2019-03-21T13:23:31.490Z,82.05
2019-03-21T13:26:01.205Z,82.06
2019-03-21T13:28:30.962Z,82.09
2019-03-21T13:31:00.854Z,82.14
2019-03-21T13:33:30.659Z,82.29
2019-03-21T13:36:00.389Z,82.50
2019-03-21T13:38:30.203Z,82.54
2019-03-21T13:40:59.982Z,82.35
2019-03-21T13:43:29.709Z,81.99
2019-03-21T13:45:59.438Z,82.08
2019-03-21T13:48:29.197Z,81.98
2019-03-21T13:50:58.929Z,81.36
2019-03-21T13:53:28.641Z,81.78
2019-03-21T13:55:58.390Z,81.79
2019-03-21T13:58:28.136Z,80.81
2019-03-21T14:00:57.952Z,81.52
2019-03-21T14:03:27.734Z,81.76
2019-03-21T14:05:57.576Z,81.40
2019-03-21T14:08:27.352Z,80.79
2019-03-21T14:10:57.084Z,81.42
2019-03-21T14:13:26.816Z,81.28
2019-03-21T14:15:57.940Z,80.85
2019-03-21T14:18:27.887Z,81.30
2019-03-21T14:20:57.638Z,80.54
2019-03-21T14:23:27.374Z,81.35
2019-03-21T14:25:57.242Z,81.05
2019-03-21T14:28:26.973Z,80.91
2019-03-21T14:30:56.698Z,81.40
2019-03-21T14:33:26.511Z,81.84
2019-03-21T14:35:56.297Z,81.28
2019-03-21T14:38:26.679Z,81.69
2019-03-21T14:40:56.575Z,81.57
2019-03-21T14:43:26.317Z,81.55
2019-03-21T14:45:56.174Z,81.69
2019-03-21T14:48:25.936Z,81.62
2019-03-21T14:50:55.729Z,82.01
2019-03-21T14:53:29.013Z,82.03
2019-03-21T14:55:56.954Z,82.07
2019-03-21T14:58:27.267Z,82.17
2019-03-21T15:00:57.015Z,82.20
2019-03-21T15:03:26.722Z,82.31
2019-03-21T15:05:56.549Z,82.69
2019-03-21T15:08:26.267Z,83.01
2019-03-21T15:10:56.027Z,83.09
2019-03-21T15:13:25.785Z,82.92
2019-03-21T15:15:55.548Z,82.94
2019-03-21T15:18:25.234Z,83.24
2019-03-21T15:20:54.969Z,83.53
2019-03-21T15:23:25.923Z,83.77
2019-03-21T15:25:56.010Z,83.52
2019-03-21T15:28:25.745Z,83.71
2019-03-21T15:30:55.473Z,83.85
2019-03-21T15:33:25.196Z,84.16
2019-03-21T15:35:54.944Z,83.84
2019-03-21T15:38:27.543Z,84.30
2019-03-21T15:40:56.104Z,84.16
2019-03-21T15:43:25.829Z,84.44
2019-03-21T15:45:55.637Z,84.66
2019-03-21T15:48:25.359Z,84.83
2019-03-21T15:51:04.290Z,84.67
2019-03-21T15:53:26.643Z,84.83
2019-03-21T15:55:56.426Z,84.89
2019-03-21T15:58:26.176Z,84.89
2019-03-21T16:00:55.941Z,85.21
2019-03-21T16:03:25.693Z,85.16
2019-03-21T16:05:55.448Z,85.38
2019-03-21T16:08:27.201Z,85.53
2019-03-21T16:10:56.579Z,85.73
2019-03-21T16:13:26.310Z,85.80
2019-03-21T16:15:56.054Z,85.76
2019-03-21T16:18:25.777Z,86.06
2019-03-21T16:20:55.508Z,85.78
2019-03-21T16:23:25.271Z,86.02
2019-03-21T16:25:56.583Z,86.25
2019-03-21T16:28:26.338Z,85.94
2019-03-21T16:30:56.107Z,86.04
2019-03-21T16:33:28.509Z,86.12
2019-03-21T16:35:59.879Z,86.17
2019-03-21T16:38:29.613Z,86.13
2019-03-21T16:40:59.365Z,86.35
2019-03-21T16:43:29.115Z,86.42
2019-03-21T16:45:58.808Z,86.70
2019-03-21T16:48:28.529Z,86.65
2019-03-21T16:50:58.265Z,86.59
2019-03-21T16:53:28.004Z,86.75
2019-03-21T16:55:57.790Z,86.59
2019-03-21T16:58:27.575Z,86.84
2019-03-21T17:00:57.289Z,86.97
2019-03-21T17:03:27.032Z,87.17
2019-03-21T17:05:56.829Z,87.18
2019-03-21T17:08:26.583Z,87.21
2019-03-21T17:10:56.375Z,87.28
2019-03-21T17:13:26.143Z,87.49
2019-03-21T17:15:55.920Z,87.50
2019-03-21T17:18:25.668Z,87.49
2019-03-21T17:20:55.583Z,87.64
2019-03-21T17:23:25.298Z,87.69
2019-03-21T17:25:55.038Z,87.73
2019-03-21T17:28:24.809Z,87.93
2019-03-21T17:30:54.541Z,88.02
2019-03-21T17:33:24.629Z,88.17
2019-03-21T17:35:54.471Z,88.46
2019-03-21T17:38:24.212Z,88.63
2019-03-21T17:40:53.959Z,88.79
2019-03-21T17:43:23.706Z,88.76
2019-03-21T17:45:53.537Z,88.83
2019-03-21T17:48:23.388Z,89.02
2019-03-21T17:50:53.196Z,89.23
2019-03-21T17:53:24.998Z,89.36
2019-03-21T17:55:54.819Z,89.50
2019-03-21T17:58:28.634Z,89.63
2019-03-21T18:00:57.659Z,89.97
2019-03-21T18:03:27.652Z,89.90
2019-03-21T18:05:57.394Z,89.95
2019-03-21T18:08:27.137Z,90.01
2019-03-21T18:10:59.122Z,90.02
2019-03-21T18:13:28.841Z,90.36
2019-03-21T18:15:58.757Z,90.45
2019-03-21T18:18:29.635Z,90.57
2019-03-21T18:20:59.396Z,90.53
2019-03-21T18:23:29.233Z,90.66
2019-03-21T18:25:59.003Z,90.85
2019-03-21T18:28:28.724Z,90.96
2019-03-21T18:30:58.522Z,90.76
2019-03-21T18:33:28.319Z,90.86
2019-03-21T18:35:58.244Z,90.76
2019-03-21T18:38:28.141Z,90.90
2019-03-21T18:41:00.044Z,90.99
2019-03-21T18:43:34.314Z,90.95
2019-03-21T18:46:04.179Z,90.99
2019-03-21T18:48:34.168Z,91.10
2019-03-21T18:51:04.091Z,91.27
2019-03-21T18:53:34.834Z,91.31
2019-03-21T18:56:04.790Z,91.31
2019-03-21T18:58:34.717Z,91.23
2019-03-21T19:01:08.703Z,91.28
2019-03-21T19:03:38.715Z,91.38
2019-03-21T19:06:10.006Z,91.60
2019-03-21T19:08:41.205Z,91.84
2019-03-21T19:11:10.900Z,92.01
2019-03-21T19:13:40.678Z,92.33
2019-03-21T19:16:15.204Z,92.39
2019-03-21T19:18:45.082Z,92.38
2019-03-21T19:21:14.836Z,92.30
2019-03-21T19:23:46.314Z,92.57
2019-03-21T19:26:25.033Z,92.65
2019-03-21T19:29:00.913Z,92.78
2019-03-21T19:31:30.762Z,92.68
2019-03-21T19:34:01.976Z,92.56
2019-03-21T19:36:33.443Z,92.60
2019-03-21T19:39:04.778Z,92.70
2019-03-21T19:41:36.569Z,92.87
2019-03-21T19:44:12.101Z,92.88
2019-03-21T19:46:41.910Z,93.03
2019-03-21T19:49:11.954Z,93.13
2019-03-21T19:51:41.725Z,93.17
2019-03-21T19:54:12.363Z,93.02
2019-03-21T19:56:42.186Z,93.26
2019-03-21T19:59:12.099Z,93.35
2019-03-21T20:01:42.155Z,93.21
2019-03-21T20:04:20.633Z,93.47
2019-03-21T20:06:57.684Z,93.65
2019-03-21T20:09:29.661Z,93.79
2019-03-21T20:11:59.762Z,93.85
2019-03-21T20:14:29.602Z,93.85
2019-03-21T20:17:00.955Z,94.06
2019-03-21T20:19:32.251Z,94.01
2019-03-21T20:22:02.989Z,93.99
2019-03-21T20:24:34.650Z,93.98
2019-03-21T20:27:04.762Z,94.06
2019-03-21T20:29:36.156Z,94.11
2019-03-21T20:32:07.532Z,94.13
2019-03-21T20:34:42.237Z,94.32
2019-03-21T20:37:13.683Z,94.46
2019-03-21T20:39:43.871Z,94.57
2019-03-21T20:42:13.588Z,94.58
2019-03-21T20:44:43.336Z,94.56
2019-03-21T20:47:13.072Z,94.41
2019-03-21T20:49:42.840Z,94.38
2019-03-21T20:52:12.981Z,94.28
2019-03-21T20:54:42.715Z,94.33
2019-03-21T20:57:14.118Z,94.52
2019-03-21T20:59:43.896Z,94.60
2019-03-21T21:02:13.707Z,94.65
2019-03-21T21:04:43.432Z,94.61
2019-03-21T21:07:13.259Z,94.56
2019-03-21T21:09:44.301Z,94.25
2019-03-21T21:12:14.077Z,94.33
2019-03-21T21:14:43.806Z,94.40
2019-03-21T21:17:13.665Z,94.53
2019-03-21T21:19:53.300Z,94.67
2019-03-21T21:22:24.715Z,94.78
2019-03-21T21:24:54.599Z,94.68
2019-03-21T21:27:24.367Z,94.75
2019-03-21T21:29:54.416Z,94.77
2019-03-21T21:32:24.164Z,94.72
2019-03-21T21:34:54.717Z,94.77
2019-03-21T21:37:24.609Z,94.77
2019-03-21T21:39:54.440Z,94.94
2019-03-21T21:42:24.186Z,95.18
2019-03-21T21:44:53.961Z,95.29
2019-03-21T21:47:23.672Z,95.21
2019-03-21T21:49:53.402Z,95.31
2019-03-21T21:52:23.124Z,95.38
2019-03-21T21:54:52.879Z,95.36
2019-03-21T21:57:22.603Z,95.19
2019-03-21T21:59:53.090Z,95.30
2019-03-21T22:02:22.943Z,95.32
2019-03-21T22:04:52.719Z,95.34
2019-03-21T22:07:22.408Z,95.42
2019-03-21T22:09:52.187Z,95.33
2019-03-21T22:12:21.898Z,95.20
2019-03-21T22:14:51.642Z,95.33
2019-03-21T22:17:21.404Z,95.38
2019-03-21T22:19:51.109Z,95.24
2019-03-21T22:22:20.895Z,95.06
2019-03-21T22:24:50.622Z,95.16
2019-03-21T22:27:20.373Z,95.28
2019-03-21T22:29:50.132Z,95.24
2019-03-21T22:32:19.948Z,95.25
2019-03-21T22:34:49.679Z,95.12
2019-03-21T22:37:19.447Z,95.18
2019-03-21T22:39:49.157Z,95.14
2019-03-21T22:42:18.913Z,95.08
2019-03-21T22:44:48.656Z,95.06
2019-03-21T22:47:18.456Z,95.14
2019-03-21T22:49:48.190Z,95.17
2019-03-21T22:52:17.988Z,95.18
2019-03-21T22:54:47.740Z,94.13
2019-03-21T22:57:17.474Z,94.55
2019-03-21T22:59:47.213Z,94.69
2019-03-21T23:02:17.023Z,94.89
2019-03-21T23:04:46.801Z,94.96
2019-03-21T23:07:16.542Z,95.04
2019-03-21T23:09:46.273Z,95.08
2019-03-21T23:12:16.053Z,95.08
2019-03-21T23:14:45.780Z,95.14
2019-03-21T23:17:15.530Z,95.23
2019-03-21T23:19:45.252Z,95.24
2019-03-21T23:22:15.004Z,95.18
2019-03-21T23:24:44.750Z,94.98
2019-03-21T23:27:14.472Z,95.04
2019-03-21T23:29:44.202Z,95.04
2019-03-21T23:32:13.925Z,95.00
2019-03-21T23:34:43.652Z,95.12
2019-03-21T23:37:13.405Z,95.15
2019-03-21T23:39:43.132Z,95.26
2019-03-21T23:42:14.899Z,95.35
2019-03-21T23:44:44.631Z,95.34
2019-03-21T23:47:14.389Z,95.38
2019-03-21T23:49:44.100Z,95.41
2019-03-21T23:52:13.825Z,95.42
2019-03-21T23:54:43.598Z,95.32
2019-03-21T23:57:13.333Z,95.29
2019-03-21T23:59:43.066Z,95.28
